Terminal Aerodrome Forecast
Issued by NWS Cleveland, OH

Home | Current Version | Previous Version | Graphics & Text | Print | Product List | Glossary On
Versions: 1 2 3 4 5 6 7 8 9 10 11 12 13 14 15 16 17 18 19 20
000
FTUS41 KCLE 201600 AAA
TAFYNG
TAF AMD
KYNG 201616Z 2016/2112 20015G25KT 6SM -SHRA VCTS OVC025CB
      TEMPO 2016/2020 2SM -SHRA OVC015
     FM202000 22020G30KT P6SM OVC018
     FM210100 24012KT P6SM VCSH OVC035
     FM211000 24010KT P6SM SCT050 BKN100=

USA.gov is the U.S. government's official web portal to all federal, state and local government web resources and services.